Kalamazoo, Michigan
Current Conditions -  °F | °C
As of 3:53 AM on Friday 24 Oct 2014 (Local Time) from KAZO Reporting Station
Broken Clouds Broken Clouds  
Wind Chill: 48°   Ceiling: 8000
Heat Index: 48°   Visibility: 7mi
Dew Point: 41°   Wind: 3mph
Humidity: 77%   Direction: 150°SSE
Pressure: 30.06"   Gusts: NA
Location:  42.29°N, 85.6°W
Report Text: KAZO 240753Z AUTO 15003KT 7SM BKN080 BKN090 09/05 A3006 RMK AO2 SLP182 T00890050
Loading
Personal Weather Stations






























Interactive Weather Map New forecast layout! Learn more

10-Day Weather Forecast

Advertisements
Track Severe Weather on mobile